Airport View

Enter AWOS ICAO identifier for current METAR.

ex. KFNL

KGYR 212247Z 27005KT 10SM SKC 33/M01 A2981

21 Sep 2019 23:42

Other Area AWOS: KGEU - KLUF - KBXK - KPHX

TAF KLUF 202000Z 2020/2202 22010G18KT 9999 SKC QNH2972INS BECMG 2023/2024 22006KT 9999 SKC QNH2979INS BECMG 2106/2107 VRB06KT 9999 SKC QNH2980INS BECMG 2121/2122 22010G20KT 9999 SKC QNH2981INS TX36/2023Z TN20/2113Z LAST NO AMDS AFT 2023 NEXT 2304